Henry Post Army Air Field (Fort Sill) Fort Sill US
ICAO: KFSI
IATA: FSI
Category: Medium
Scheduled Services: No

Elevation: 1189 ft
TransAlt. 18000 ft.

Airport Communications:
FORT SILL APP/DEP:118.6
ATIS:135.425
CLNC DEL:121.7
POST GND:121.7
DUNCAN SCTR:118.6
PMSV METRO:37.52
PTD:123.05
POST TWR:124.95

KFSI Zoom In..

If you have problems with the map follow the link
https://www.worldairports.se/pages/airport.php?
ICAO=KFSI

Runways:

(A) RW 17 length 5001 ft width 150 ft
---- / hdg 173

(B) RW 35 length 5001 ft width 150 ft
---- / hdg 353

Location; KFSI
Day. 18 / Time. 05.56 Zulu
* Altimeter: 30.42
* Temperature: 12° c. 53.6°f.
* Wind from: 000° Speed 00 kn.
Dewpoint: 10° c.
Visibility: 10 Statute Miles.
Clouds: Broken 12000 ft.

KFSI 180556Z AUTO 00000KT 10SM BKN120 12/10 A3042 RMK AO2 SLP299 T01240098 10152 20124 401930084 55006


Wind - Calm.

 
 
jpsmedia.com for Web Design worldairports.se 2018   terms of use